Time;durP1;ratioP1;P1;durP2;ratioP2;P2;SDS_P1;SDS_P2;PMS_P1;PMS_P2;Temp;Humidity;BMP_temperature;BMP_pressure;BME280_temperature;BME280_humidity;BME280_pressure;Samples;Min_cycle;Max_cycle;Signal;HPM_P1;HPM_P2
2023/08/10 00:02:08;;;;;;;2.30;1.42;;;;;;;21.80;56.55;99822.69;4481874;32;34985;-71
2023/08/10 00:04:36;;;;;;;5.95;2.42;;;;;;;21.72;56.55;99830.06;4479968;32;34088;-71
2023/08/10 00:07:04;;;;;;;2.65;1.50;;;;;;;21.61;56.71;99823.19;4480269;32;33706;-71
2023/08/10 00:09:32;;;;;;;2.53;1.65;;;;;;;21.53;56.87;99818.66;4480952;31;33353;-71
2023/08/10 00:12:00;;;;;;;3.75;1.90;;;;;;;21.54;56.68;99817.66;4482088;32;34628;-71
2023/08/10 00:14:27;;;;;;;4.12;1.35;;;;;;;21.37;56.98;99807.91;4479564;31;34723;-72
2023/08/10 00:16:55;;;;;;;1.75;1.17;;;;;;;21.17;57.49;99815.69;4477937;32;34927;-71
2023/08/10 00:19:23;;;;;;;3.97;1.90;;;;;;;21.21;57.49;99808.00;4481805;32;33332;-71
2023/08/10 00:21:51;;;;;;;3.90;1.80;;;;;;;21.12;57.90;99812.66;4482992;31;33528;-71
2023/08/10 00:24:18;;;;;;;3.12;1.20;;;;;;;21.05;57.94;99809.81;4481020;32;35940;-73
2023/08/10 00:26:46;;;;;;;3.00;1.70;;;;;;;21.20;57.50;99814.50;4481341;31;35167;-73
2023/08/10 00:29:14;;;;;;;3.20;1.92;;;;;;;21.18;57.48;99812.78;4481007;32;33550;-72
2023/08/10 00:31:41;;;;;;;1.67;1.25;;;;;;;21.16;57.63;99808.56;4480974;31;34797;-73
2023/08/10 00:34:09;;;;;;;9.75;1.90;;;;;;;21.17;57.72;99810.25;4480555;32;34061;-72
2023/08/10 00:36:37;;;;;;;4.93;2.22;;;;;;;21.12;57.75;99812.66;4480765;31;34013;-73
2023/08/10 00:39:05;;;;;;;3.97;2.12;;;;;;;21.12;57.48;99813.53;4482727;32;33496;-75
2023/08/10 00:41:32;;;;;;;5.05;2.05;;;;;;;21.09;57.39;99803.00;4481346;32;33677;-74
2023/08/10 00:44:00;;;;;;;2.95;2.00;;;;;;;21.08;57.45;99814.06;4473095;32;35075;-75
2023/08/10 00:46:27;;;;;;;3.05;1.62;;;;;;;21.03;57.44;99811.03;4478706;32;33594;-74
2023/08/10 00:48:55;;;;;;;2.42;1.60;;;;;;;21.00;57.29;99814.12;4460657;32;32215;-74
2023/08/10 00:51:23;;;;;;;3.92;1.70;;;;;;;20.98;57.24;99805.28;4463083;32;33456;-74
2023/08/10 00:53:51;;;;;;;1.75;1.48;;;;;;;20.96;57.19;99810.87;4470880;32;33805;-74
2023/08/10 00:56:19;;;;;;;2.50;1.73;;;;;;;20.89;57.14;99808.03;4461643;32;32517;-75
2023/08/10 00:58:47;;;;;;;6.03;1.85;;;;;;;20.82;57.33;99806.22;4477943;32;34345;-75
2023/08/10 01:01:15;;;;;;;2.90;1.62;;;;;;;20.69;57.55;99798.66;4463397;32;34404;-75
2023/08/10 01:03:43;;;;;;;3.65;1.67;;;;;;;20.69;57.61;99804.94;4473302;32;33695;-75
2023/08/10 01:06:32;;;;;;;4.55;2.20;;;;;;;20.70;57.56;99805.78;4478104;32;34497;-74
2023/08/10 01:09:23;;;;;;;2.92;1.58;;;;;;;20.66;57.72;99807.19;4475331;32;33343;-74
2023/08/10 01:11:53;;;;;;;3.15;1.95;;;;;;;20.57;57.96;99806.34;4467885;32;33741;-74
2023/08/10 01:14:32;;;;;;;3.08;1.65;;;;;;;20.65;57.59;99811.78;4471603;32;34206;-74
2023/08/10 01:17:01;;;;;;;4.50;1.87;;;;;;;20.65;57.59;99803.63;4473208;31;33705;-74
2023/08/10 01:19:38;;;;;;;2.33;1.33;;;;;;;20.69;57.64;99804.09;4482133;32;32932;-73
2023/08/10 01:22:25;;;;;;;3.67;2.30;;;;;;;20.63;57.79;99808.38;4478534;31;33619;-73
2023/08/10 01:25:14;;;;;;;3.37;1.65;;;;;;;20.68;57.56;99799.69;4481428;32;34061;-70
2023/08/10 01:27:42;;;;;;;2.53;1.42;;;;;;;20.61;57.75;99804.13;4473883;32;33967;-71
2023/08/10 01:30:11;;;;;;;7.22;1.95;;;;;;;20.62;57.65;99808.56;4476236;32;33596;-71
2023/08/10 01:32:39;;;;;;;4.72;2.75;;;;;;;20.63;57.55;99810.25;4478984;31;34653;-71
2023/08/10 01:35:07;;;;;;;4.12;1.70;;;;;;;20.59;57.63;99811.63;4482665;32;33910;-71
2023/08/10 01:37:34;;;;;;;4.80;1.80;;;;;;;20.59;57.60;99812.47;4475963;31;33693;-72
2023/08/10 01:40:07;;;;;;;3.80;1.87;;;;;;;20.59;57.76;99812.47;4481870;32;33102;-71
2023/08/10 01:42:34;;;;;;;2.42;1.50;;;;;;;20.26;58.46;99811.75;4484428;32;34039;-72
2023/08/10 01:45:04;;;;;;;2.92;1.62;;;;;;;20.54;58.01;99809.44;4482122;31;33870;-73
2023/08/10 01:47:36;;;;;;;4.03;1.45;;;;;;;20.46;58.19;99820.34;4481818;32;33541;-73
2023/08/10 01:50:07;;;;;;;2.40;1.27;;;;;;;20.60;57.53;99822.31;4471957;32;34268;-72
2023/08/10 01:52:38;;;;;;;3.20;1.77;;;;;;;20.55;57.54;99813.88;4482388;32;33804;-73
2023/08/10 01:55:07;;;;;;;3.42;1.80;;;;;;;20.54;57.35;99809.44;4471858;32;34437;-73
2023/08/10 01:57:35;;;;;;;3.62;1.92;;;;;;;20.39;57.76;99809.31;4481297;32;33697;-73
2023/08/10 02:00:06;;;;;;;2.78;1.75;;;;;;;20.33;57.83;99812.75;4473109;32;34527;-73
2023/08/10 02:02:42;;;;;;;3.12;1.80;;;;;;;20.11;58.36;99808.91;4472393;32;34922;-73
2023/08/10 02:05:11;;;;;;;3.58;1.70;;;;;;;20.09;58.43;99810.94;4483034;31;34890;-72
2023/08/10 02:07:41;;;;;;;5.50;2.12;;;;;;;20.18;58.20;99815.31;4482194;32;33936;-73
2023/08/10 02:10:09;;;;;;;7.62;1.55;;;;;;;20.13;58.25;99812.31;4482509;32;33024;-73
2023/08/10 02:12:37;;;;;;;4.32;2.17;;;;;;;20.12;58.38;99813.31;4482557;31;33693;-74
2023/08/10 02:15:06;;;;;;;3.10;1.83;;;;;;;20.06;58.72;99805.00;4482041;32;35173;-74
2023/08/10 02:17:36;;;;;;;2.90;1.83;;;;;;;20.00;58.88;99812.00;4483514;31;34892;-74
2023/08/10 02:20:12;;;;;;;3.75;2.17;;;;;;;20.00;58.74;99815.56;4482953;32;33364;-71
2023/08/10 02:22:45;;;;;;;6.45;1.85;;;;;;;20.03;58.70;99814.34;4480750;31;33549;-71
2023/08/10 02:25:12;;;;;;;2.95;1.77;;;;;;;19.94;59.01;99812.69;4480144;32;35145;-71
2023/08/10 02:27:41;;;;;;;4.30;2.28;;;;;;;20.00;58.74;99809.28;4482184;31;34662;-71
2023/08/10 02:30:09;;;;;;;3.45;1.95;;;;;;;19.98;58.88;99812.16;4480707;32;31853;-71
2023/08/10 02:32:37;;;;;;;2.95;1.87;;;;;;;19.93;59.10;99808.28;4482753;31;33723;-72
2023/08/10 02:35:06;;;;;;;7.68;2.62;;;;;;;19.79;59.62;99812.56;4482683;32;35178;-71
2023/08/10 02:37:33;;;;;;;3.83;1.98;;;;;;;19.75;59.71;99803.91;4468360;32;33829;-71
2023/08/10 02:40:04;;;;;;;4.22;2.08;;;;;;;19.68;60.05;99802.91;4480532;31;33560;-71
2023/08/10 02:42:31;;;;;;;6.70;2.35;;;;;;;19.76;59.75;99802.87;4482584;32;34690;-71
2023/08/10 02:44:59;;;;;;;2.37;1.70;;;;;;;19.72;59.94;99798.81;4482645;31;34116;-71
2023/08/10 02:47:27;;;;;;;3.78;2.03;;;;;;;19.86;59.48;99799.97;4482812;32;33801;-71
2023/08/10 02:49:55;;;;;;;4.55;2.08;;;;;;;19.74;59.98;99801.34;4482793;31;34275;-71
2023/08/10 02:52:22;;;;;;;2.42;1.48;;;;;;;19.84;59.62;99799.31;4481211;32;33799;-71
2023/08/10 02:54:50;;;;;;;3.85;2.28;;;;;;;19.91;59.42;99810.34;4481363;31;34858;-71
2023/08/10 02:57:18;;;;;;;4.47;2.30;;;;;;;19.84;59.69;99803.87;4482966;32;33715;-71
2023/08/10 02:59:45;;;;;;;4.22;2.53;;;;;;;19.91;59.44;99803.03;4471466;32;32933;-71
2023/08/10 03:02:17;;;;;;;4.03;2.30;;;;;;;19.93;59.38;99805.56;4481203;31;33799;-71
2023/08/10 03:04:45;;;;;;;4.30;2.12;;;;;;;19.80;59.74;99799.81;4482384;32;33657;-71
2023/08/10 03:07:13;;;;;;;5.50;2.50;;;;;;;19.78;59.89;99803.56;4482781;31;33760;-71
2023/08/10 03:09:41;;;;;;;4.87;3.03;;;;;;;19.83;59.80;99800.31;4480218;32;33415;-71
2023/08/10 03:12:09;;;;;;;3.35;1.92;;;;;;;19.86;59.60;99802.69;4482786;31;33680;-71
2023/08/10 03:14:37;;;;;;;4.55;2.40;;;;;;;19.90;59.58;99805.91;4483207;32;34238;-72
2023/08/10 03:17:05;;;;;;;4.18;2.37;;;;;;;19.91;59.52;99805.75;4482448;31;33581;-72
2023/08/10 03:19:33;;;;;;;4.53;2.60;;;;;;;19.83;59.64;99799.47;4481354;32;34335;-72
2023/08/10 03:22:00;;;;;;;4.90;2.35;;;;;;;19.89;59.45;99804.22;4482094;32;33970;-73
2023/08/10 03:24:28;;;;;;;3.22;2.20;;;;;;;19.89;59.19;99798.78;4479697;31;34028;-72
2023/08/10 03:26:56;;;;;;;4.22;2.00;;;;;;;19.89;59.05;99804.22;4482977;32;34854;-72
2023/08/10 03:29:24;;;;;;;4.47;2.40;;;;;;;19.75;59.24;99803.91;4483148;32;33190;-71
2023/08/10 03:31:52;;;;;;;5.78;2.67;;;;;;;19.83;59.12;99805.75;4481448;32;33406;-71
2023/08/10 03:34:20;;;;;;;4.32;1.77;;;;;;;19.82;59.28;99803.22;4482768;32;33849;-71
2023/08/10 03:36:47;;;;;;;5.03;2.50;;;;;;;19.82;59.25;99809.50;4482665;32;33328;-70
2023/08/10 03:39:15;;;;;;;4.55;2.65;;;;;;;19.85;59.39;99813.75;4482270;32;33665;-71
2023/08/10 03:41:42;;;;;;;3.28;2.08;;;;;;;19.92;59.12;99815.56;4482437;32;34063;-71
2023/08/10 03:44:11;;;;;;;3.20;2.20;;;;;;;19.87;59.16;99822.53;4480760;32;34017;-71
2023/08/10 03:46:38;;;;;;;5.45;2.20;;;;;;;19.81;59.19;99826.81;4482835;32;34640;-70
2023/08/10 03:49:06;;;;;;;3.58;1.95;;;;;;;19.80;59.24;99835.97;4477963;32;34485;-72
2023/08/10 03:51:34;;;;;;;4.57;2.50;;;;;;;19.85;59.14;99841.75;4479077;32;33883;-71
2023/08/10 03:54:02;;;;;;;4.03;1.92;;;;;;;19.89;59.15;99845.81;4483309;32;34135;-70
2023/08/10 03:56:30;;;;;;;4.78;2.58;;;;;;;19.87;59.21;99842.44;4480643;32;32473;-70
2023/08/10 03:58:57;;;;;;;5.35;2.40;;;;;;;19.82;59.50;99843.97;4482731;32;33208;-70
2023/08/10 04:01:25;;;;;;;3.92;2.22;;;;;;;19.85;59.51;99847.16;4483163;32;33561;-70
2023/08/10 04:03:53;;;;;;;3.47;2.20;;;;;;;19.80;59.86;99844.09;4481308;32;33943;-70
2023/08/10 04:06:22;;;;;;;4.10;2.35;;;;;;;19.92;59.39;99853.59;4480100;32;34613;-70
2023/08/10 04:08:49;;;;;;;5.07;2.00;;;;;;;19.99;59.16;99843.75;4481615;32;33301;-68
2023/08/10 04:11:17;;;;;;;5.82;2.72;;;;;;;20.01;59.02;99844.41;4482775;32;34047;-76
2023/08/10 04:13:46;;;;;;;4.28;1.92;;;;;;;20.04;58.83;99851.38;4483246;32;34029;-75
2023/08/10 04:16:14;;;;;;;3.87;2.42;;;;;;;20.00;58.99;99856.31;4483219;32;33982;-69
2023/08/10 04:18:43;;;;;;;3.53;1.73;;;;;;;20.08;58.72;99854.59;4482942;32;33374;-71
2023/08/10 04:21:11;;;;;;;4.78;2.45;;;;;;;20.14;58.46;99849.31;4481108;32;34975;-71
2023/08/10 04:23:40;;;;;;;4.47;2.47;;;;;;;20.14;58.48;99853.91;4482425;32;34351;-71
2023/08/10 04:26:09;;;;;;;2.78;1.60;;;;;;;20.20;58.42;99864.09;4481852;32;35042;-71
2023/08/10 04:28:36;;;;;;;3.80;2.15;;;;;;;20.24;58.28;99868.97;4483155;32;33154;-72
2023/08/10 04:31:04;;;;;;;5.18;1.98;;;;;;;20.29;58.16;99859.44;4482603;32;33466;-72
2023/08/10 04:33:32;;;;;;;4.18;2.28;;;;;;;20.17;58.29;99856.28;4482986;32;33761;-72
2023/08/10 04:35:59;;;;;;;2.87;1.80;;;;;;;20.00;59.23;99860.91;4482369;32;33915;-72
2023/08/10 04:38:27;;;;;;;3.55;2.00;;;;;;;20.02;59.44;99865.13;4481089;32;34416;-72
2023/08/10 04:40:55;;;;;;;6.40;2.62;;;;;;;20.16;59.12;99870.87;4482243;32;34001;-74
2023/08/10 04:43:23;;;;;;;4.10;2.58;;;;;;;20.32;58.76;99869.97;4482687;32;34037;-72
2023/08/10 04:45:50;;;;;;;3.45;1.67;;;;;;;19.68;61.26;99859.09;4481755;32;35137;-71
2023/08/10 04:48:18;;;;;;;4.62;2.25;;;;;;;19.88;60.36;99857.69;4482148;32;32024;-71
2023/08/10 04:50:46;;;;;;;3.78;1.80;;;;;;;20.11;59.96;99862.41;4479402;32;34792;-71
2023/08/10 04:53:13;;;;;;;3.10;2.15;;;;;;;20.53;58.73;99866.72;4482920;32;34949;-71
2023/08/10 04:55:41;;;;;;;4.12;2.20;;;;;;;20.80;57.91;99862.69;4482866;32;34166;-72
2023/08/10 04:58:09;;;;;;;2.92;1.77;;;;;;;20.64;58.97;99861.75;4484531;32;33686;-71
2023/08/10 05:00:37;;;;;;;6.72;2.47;;;;;;;21.08;57.62;99871.19;4480142;32;34691;-72
2023/08/10 05:03:05;;;;;;;4.95;2.72;;;;;;;21.25;57.69;99874.66;4479144;32;34072;-71
2023/08/10 05:05:33;;;;;;;4.57;1.67;;;;;;;21.54;56.38;99877.56;4476901;32;33512;-72
2023/08/10 05:08:00;;;;;;;6.40;2.50;;;;;;;22.30;53.78;99874.81;4483412;32;33379;-73
2023/08/10 05:10:28;;;;;;;4.78;2.55;;;;;;;22.35;53.17;99868.81;4483984;32;33705;-73
2023/08/10 05:12:56;;;;;;;4.80;2.50;;;;;;;22.18;53.90;99876.28;4483834;32;35222;-73
2023/08/10 05:15:23;;;;;;;4.15;2.37;;;;;;;22.10;54.17;99872.59;4484715;32;33939;-73
2023/08/10 05:17:51;;;;;;;3.60;2.17;;;;;;;21.46;56.73;99872.16;4484310;32;34452;-73
2023/08/10 05:20:19;;;;;;;5.20;2.65;;;;;;;21.62;56.36;99874.75;4483570;32;34880;-73
2023/08/10 05:22:46;;;;;;;4.35;2.00;;;;;;;21.49;56.65;99874.53;4476621;32;33879;-73
2023/08/10 05:25:14;;;;;;;3.37;1.85;;;;;;;21.66;56.54;99868.94;4481708;32;34740;-73
2023/08/10 05:27:45;;;;;;;3.37;1.85;;;;;;;21.86;55.74;99875.56;4478866;32;35136;-73
2023/08/10 05:30:13;;;;;;;3.37;1.98;;;;;;;21.80;56.30;99884.50;4484220;32;34648;-73
2023/08/10 05:32:44;;;;;;;6.35;2.25;;;;;;;22.27;54.71;99884.19;4482672;32;34964;-73
2023/08/10 05:35:13;;;;;;;6.15;2.55;;;;;;;22.68;53.16;99886.47;4481839;32;34958;-73
2023/08/10 05:37:42;;;;;;;3.58;2.05;;;;;;;22.54;53.54;99882.72;4480928;32;33741;-72
2023/08/10 05:40:11;;;;;;;3.80;2.17;;;;;;;22.09;54.94;99892.72;4482563;32;33996;-72
2023/08/10 05:42:39;;;;;;;4.72;2.15;;;;;;;21.75;55.66;99886.91;4477362;32;33878;-73
2023/08/10 05:45:20;;;;;;;5.43;2.83;;;;;;;21.89;55.02;99893.41;4484648;32;34146;-72
2023/08/10 05:47:50;;;;;;;3.53;1.95;;;;;;;21.59;56.57;99896.91;4480082;32;33222;-72
2023/08/10 05:50:18;;;;;;;4.50;2.35;;;;;;;21.33;57.69;99896.38;4482957;31;33455;-72
2023/08/10 05:52:45;;;;;;;3.70;2.00;;;;;;;21.40;56.92;99902.84;4482688;32;33796;-72
2023/08/10 05:55:14;;;;;;;3.40;2.05;;;;;;;22.07;55.56;99905.69;4483909;32;34497;-72
2023/08/10 05:57:42;;;;;;;4.85;2.15;;;;;;;21.56;57.28;99912.75;4477465;32;33214;-72
2023/08/10 06:00:13;;;;;;;5.03;2.53;;;;;;;21.65;56.22;99908.09;4481115;32;34338;-72
2023/08/10 06:02:41;;;;;;;3.90;2.45;;;;;;;21.58;56.67;99908.84;4455634;32;33724;-69
2023/08/10 06:05:09;;;;;;;4.82;2.65;;;;;;;21.80;55.61;99909.84;4459141;32;34620;-73
2023/08/10 06:07:37;;;;;;;7.53;2.53;;;;;;;21.64;55.97;99904.53;4450650;32;34001;-73
2023/08/10 06:10:05;;;;;;;4.43;2.60;;;;;;;21.52;56.72;99909.56;4453802;32;33582;-73
2023/08/10 06:12:33;;;;;;;4.95;2.60;;;;;;;21.32;57.76;99902.87;4458606;32;33871;-73
2023/08/10 06:15:01;;;;;;;5.25;2.17;;;;;;;21.53;56.76;99907.69;4461490;32;33766;-73
2023/08/10 06:17:31;;;;;;;4.07;2.10;;;;;;;21.85;55.94;99907.41;4454874;32;32647;-73
2023/08/10 06:19:59;;;;;;;6.30;2.35;;;;;;;21.75;56.36;99904.09;4464147;32;33468;-73
2023/08/10 06:22:27;;;;;;;6.53;3.15;;;;;;;21.54;57.39;99904.78;4456371;32;34784;-72
2023/08/10 06:24:54;;;;;;;5.03;2.78;;;;;;;21.90;55.28;99909.59;4458115;32;34924;-72
2023/08/10 06:27:22;;;;;;;4.28;1.98;;;;;;;21.68;55.67;99905.88;4463604;32;33658;-72
2023/08/10 06:29:49;;;;;;;4.68;2.12;;;;;;;21.70;55.70;99911.13;4463699;32;34650;-73
2023/08/10 06:32:18;;;;;;;5.35;2.12;;;;;;;21.80;55.25;99909.00;4450529;32;34003;-73
2023/08/10 06:34:46;;;;;;;3.40;2.05;;;;;;;21.96;55.27;99910.72;4455154;32;33834;-73
2023/08/10 06:37:16;;;;;;;4.70;2.28;;;;;;;21.85;55.64;99921.03;4465538;32;32996;-73
2023/08/10 06:39:46;;;;;;;4.32;2.08;;;;;;;21.84;55.91;99916.63;4457318;32;33573;-73
2023/08/10 06:42:14;;;;;;;4.45;2.65;;;;;;;21.99;55.30;99922.13;4481965;32;34001;-73
2023/08/10 06:44:42;;;;;;;6.37;2.15;;;;;;;21.65;57.26;99925.28;4484295;32;34472;-72
2023/08/10 06:47:10;;;;;;;4.47;2.25;;;;;;;21.65;56.91;99928.00;4484165;32;33135;-73
2023/08/10 06:49:38;;;;;;;3.65;2.17;;;;;;;21.38;56.63;99934.84;4483496;32;34606;-72
2023/08/10 06:52:06;;;;;;;3.87;2.35;;;;;;;21.66;56.36;99935.16;4484416;32;33763;-72
2023/08/10 06:54:34;;;;;;;5.35;2.33;;;;;;;21.78;55.99;99935.56;4481561;32;33593;-72
2023/08/10 06:57:02;;;;;;;4.05;2.20;;;;;;;21.91;55.40;99938.53;4474771;32;34223;-72
2023/08/10 06:59:32;;;;;;;7.15;2.75;;;;;;;21.39;57.42;99939.25;4482332;32;34022;-73
2023/08/10 07:02:21;;;;;;;4.00;2.22;;;;;;;21.39;57.51;99947.44;4468242;32;33649;-72
2023/08/10 07:04:49;;;;;;;4.70;2.75;;;;;;;21.65;57.46;99949.81;4478613;32;34652;-72
2023/08/10 07:07:16;;;;;;;5.05;2.75;;;;;;;21.34;57.85;99947.91;4473919;32;33237;-72
2023/08/10 07:09:44;;;;;;;4.10;2.62;;;;;;;21.98;56.38;99952.25;4471257;32;35182;-72
2023/08/10 07:12:12;;;;;;;4.70;2.37;;;;;;;22.01;55.77;99949.19;4484210;32;33977;-72
2023/08/10 07:14:39;;;;;;;4.05;2.10;;;;;;;22.18;55.82;99952.63;4483199;32;34173;-72
2023/08/10 07:17:07;;;;;;;3.22;1.73;;;;;;;22.21;55.01;99954.97;4481658;32;33632;-72
2023/08/10 07:19:36;;;;;;;3.70;1.55;;;;;;;22.24;54.35;99958.19;4483008;32;34885;-73
2023/08/10 07:22:03;;;;;;;6.35;2.25;;;;;;;21.78;55.80;99955.50;4483271;32;33846;-73
2023/08/10 07:24:31;;;;;;;2.37;1.55;;;;;;;21.99;54.83;99954.81;4482797;32;34660;-72
2023/08/10 07:26:59;;;;;;;3.62;1.87;;;;;;;21.80;55.16;99961.63;4480736;32;34414;-72
2023/08/10 07:29:26;;;;;;;3.60;2.10;;;;;;;21.92;54.82;99961.16;4475617;32;33537;-73
2023/08/10 07:32:00;;;;;;;3.92;1.92;;;;;;;22.03;55.07;99967.03;4480083;32;33920;-73
2023/08/10 07:34:27;;;;;;;5.37;2.22;;;;;;;22.40;53.48;99972.69;4483781;32;34669;-73
2023/08/10 07:36:55;;;;;;;5.70;2.10;;;;;;;21.98;55.37;99958.56;4483824;32;33143;-73
2023/08/10 07:39:23;;;;;;;6.28;1.80;;;;;;;21.91;55.35;99952.16;4483689;32;33949;-73
2023/08/10 07:41:52;;;;;;;2.53;1.55;;;;;;;21.90;53.68;99961.38;4480778;32;33651;-72
2023/08/10 07:44:20;;;;;;;3.30;1.10;;;;;;;22.27;51.77;99956.97;4480698;31;33881;-72
2023/08/10 07:46:48;;;;;;;3.33;1.98;;;;;;;22.64;51.22;99955.25;4478617;32;33092;-76
2023/08/10 07:49:17;;;;;;;3.55;1.65;;;;;;;22.00;51.71;99955.66;4477174;32;34216;-73
2023/08/10 07:51:47;;;;;;;3.92;1.00;;;;;;;22.62;50.74;99954.56;4482761;31;33682;-71
2023/08/10 07:54:14;;;;;;;4.00;1.98;;;;;;;22.31;52.61;99963.75;4480177;32;34275;-70
2023/08/10 07:56:43;;;;;;;3.87;1.37;;;;;;;22.49;52.31;99963.41;4472744;32;32134;-71
2023/08/10 07:59:11;;;;;;;2.45;1.10;;;;;;;22.19;51.08;99959.78;4481886;32;33451;-71
2023/08/10 08:01:39;;;;;;;2.53;1.17;;;;;;;22.44;50.38;99965.81;4481656;32;33787;-69
2023/08/10 08:04:07;;;;;;;2.75;1.40;;;;;;;22.42;50.83;99968.75;4483330;32;33843;-70
2023/08/10 08:06:38;;;;;;;2.25;1.17;;;;;;;22.79;49.30;99964.25;4482017;32;33770;-70
2023/08/10 08:09:07;;;;;;;2.55;1.33;;;;;;;22.69;50.20;99967.25;4482773;32;34661;-69
2023/08/10 08:11:35;;;;;;;1.95;1.25;;;;;;;22.90;50.19;99971.97;4480455;32;34880;-69
2023/08/10 08:14:03;;;;;;;1.52;1.10;;;;;;;22.46;49.57;99972.78;4467850;32;32873;-69
2023/08/10 08:16:30;;;;;;;2.72;1.42;;;;;;;22.31;49.13;99974.66;4477688;32;33385;-68
2023/08/10 08:19:00;;;;;;;2.72;1.33;;;;;;;22.50;50.08;99971.41;4476298;31;34908;-69
2023/08/10 08:21:29;;;;;;;1.75;1.00;;;;;;;22.47;50.08;99968.19;4484912;31;35231;-71
2023/08/10 08:23:58;;;;;;;2.58;1.25;;;;;;;22.72;48.75;99974.22;4482098;32;33606;-71
2023/08/10 08:26:28;;;;;;;2.30;1.27;;;;;;;22.63;47.87;99975.34;4478571;32;33167;-70
2023/08/10 08:28:57;;;;;;;2.17;1.05;;;;;;;22.92;46.79;99978.09;4479833;32;34670;-71
2023/08/10 08:31:25;;;;;;;2.60;1.33;;;;;;;22.81;45.17;99975.84;4481711;32;34006;-72
2023/08/10 08:33:54;;;;;;;2.50;1.05;;;;;;;23.11;44.89;99979.41;4477245;32;34858;-72
2023/08/10 08:36:21;;;;;;;3.33;1.20;;;;;;;22.79;45.85;99981.50;4480107;32;34021;-73
2023/08/10 08:38:49;;;;;;;2.40;1.30;;;;;;;22.96;45.86;99987.63;4470858;32;33681;-70
2023/08/10 08:41:18;;;;;;;2.75;1.52;;;;;;;22.89;46.10;99989.41;4475385;31;33788;-71
2023/08/10 08:43:47;;;;;;;1.42;0.80;;;;;;;23.19;45.68;99990.22;4470617;32;33738;-72
2023/08/10 08:46:16;;;;;;;1.98;1.05;;;;;;;23.09;43.81;99986.97;4474017;32;33634;-72
2023/08/10 08:48:45;;;;;;;1.25;0.80;;;;;;;22.39;44.67;99984.66;4439531;32;33200;-72
2023/08/10 08:51:12;;;;;;;3.10;1.33;;;;;;;22.31;43.65;99985.56;4440306;32;35539;-71
2023/08/10 08:53:40;;;;;;;2.05;0.88;;;;;;;22.66;43.51;99989.47;4427673;32;34140;-71
2023/08/10 08:56:08;;;;;;;1.73;0.98;;;;;;;22.77;43.53;99985.44;4431765;32;34334;-70
2023/08/10 08:58:36;;;;;;;3.25;1.35;;;;;;;22.82;42.51;99985.69;4445627;32;34523;-71
2023/08/10 09:01:04;;;;;;;1.00;0.80;;;;;;;23.11;43.23;99982.12;4438582;32;33826;-70
2023/08/10 09:03:32;;;;;;;2.05;1.08;;;;;;;23.24;40.81;99992.38;4446372;32;34084;-72
2023/08/10 09:06:01;;;;;;;2.60;0.93;;;;;;;22.85;39.39;99981.75;4442927;32;33383;-71
2023/08/10 09:08:29;;;;;;;1.25;0.65;;;;;;;23.22;38.50;99987.13;4401518;32;34213;-71
2023/08/10 09:10:59;;;;;;;1.95;1.00;;;;;;;23.33;37.61;99987.66;4396233;32;33796;-73
2023/08/10 09:13:27;;;;;;;3.20;1.42;;;;;;;23.80;38.02;99984.44;4403097;32;34687;-73
2023/08/10 09:16:11;;;;;;;2.45;0.80;;;;;;;23.59;37.85;99987.97;4400553;32;33446;-68
2023/08/10 09:18:42;;;;;;;2.97;1.40;;;;;;;23.21;38.08;99996.38;4400993;32;35158;-68
2023/08/10 09:21:20;;;;;;;2.53;0.80;;;;;;;23.90;36.82;99992.31;4433436;32;33752;-67
2023/08/10 09:23:52;;;;;;;2.40;0.90;;;;;;;23.08;38.52;99987.13;4430969;32;34563;-67
2023/08/10 09:26:20;;;;;;;2.72;1.10;;;;;;;23.11;38.49;99995.78;4428316;32;34827;-70
2023/08/10 09:28:49;;;;;;;2.28;1.08;;;;;;;23.57;36.29;99986.50;4429729;32;34667;-70
2023/08/10 09:31:27;;;;;;;2.80;1.30;;;;;;;23.45;35.52;99983.41;4431937;32;34061;-67
2023/08/10 09:33:58;;;;;;;2.00;1.10;;;;;;;23.63;36.53;99983.81;4432429;32;33647;-67
2023/08/10 09:36:27;;;;;;;1.33;0.75;;;;;;;24.18;36.03;99982.28;4431966;32;34164;-68
2023/08/10 09:38:55;;;;;;;3.05;1.30;;;;;;;24.17;35.84;99979.72;4434214;32;34227;-68
2023/08/10 09:41:28;;;;;;;2.10;1.08;;;;;;;24.84;35.94;99975.63;4462548;32;34703;-68
2023/08/10 09:43:56;;;;;;;1.67;1.00;;;;;;;25.06;36.14;99977.19;4484358;32;33825;-69
2023/08/10 09:46:23;;;;;;;2.08;0.80;;;;;;;24.29;36.66;99980.88;4484436;32;34582;-68
2023/08/10 09:48:52;;;;;;;1.98;1.10;;;;;;;24.17;36.59;99985.19;4484707;32;34008;-68
2023/08/10 09:51:20;;;;;;;2.80;1.45;;;;;;;24.27;35.25;99983.00;4484652;32;34069;-68
2023/08/10 09:53:48;;;;;;;7.93;1.70;;;;;;;24.81;35.18;99976.00;4484863;32;34708;-68
2023/08/10 09:56:16;;;;;;;2.55;1.00;;;;;;;24.67;35.13;99987.94;4469747;32;32993;-68
2023/08/10 09:58:44;;;;;;;2.03;1.02;;;;;;;24.77;35.61;99985.69;4483643;32;35035;-68
2023/08/10 10:01:12;;;;;;;2.35;0.95;;;;;;;25.07;34.74;99975.31;4480882;32;33689;-68
2023/08/10 10:03:43;;;;;;;2.35;0.93;;;;;;;24.79;34.85;99975.38;4484647;32;33762;-68
2023/08/10 10:06:13;;;;;;;4.00;1.48;;;;;;;24.84;33.98;99976.44;4483351;32;34075;-68
2023/08/10 10:08:49;;;;;;;2.67;1.35;;;;;;;25.54;33.20;99971.72;4481556;32;34001;-67
2023/08/10 10:11:17;;;;;;;3.12;1.02;;;;;;;24.98;34.83;99974.66;4467685;32;33798;-70
2023/08/10 10:13:45;;;;;;;4.35;1.17;;;;;;;25.84;32.60;99967.81;4472705;32;33754;-71
2023/08/10 10:16:12;;;;;;;1.95;1.00;;;;;;;25.90;33.60;99980.69;4477728;32;33270;-71
2023/08/10 10:18:40;;;;;;;3.87;1.25;;;;;;;26.04;33.04;99970.59;4480015;32;33470;-72
2023/08/10 10:21:08;;;;;;;1.90;1.20;;;;;;;26.17;32.71;99970.59;4480576;32;35034;-70
2023/08/10 10:23:40;;;;;;;2.85;1.45;;;;;;;26.16;33.39;99971.63;4463846;32;33527;-70
2023/08/10 10:26:10;;;;;;;3.10;1.40;;;;;;;26.64;32.20;99975.00;4457815;32;31949;-71
2023/08/10 10:28:39;;;;;;;2.70;1.33;;;;;;;26.98;31.68;99962.03;4455834;32;34447;-72
2023/08/10 10:31:09;;;;;;;1.73;0.95;;;;;;;26.30;29.33;99967.00;4462430;32;34923;-72
2023/08/10 10:33:55;;;;;;;2.37;1.25;;;;;;;27.01;29.34;99963.53;4458628;32;35287;-72
2023/08/10 10:36:23;;;;;;;2.20;0.85;;;;;;;26.48;29.03;99967.22;4456628;32;34499;-72
2023/08/10 10:39:03;;;;;;;2.62;1.20;;;;;;;27.18;29.43;99967.50;4464497;32;32813;-72
2023/08/10 10:41:32;;;;;;;2.83;1.25;;;;;;;27.71;28.01;99955.37;4464577;32;34002;-72
2023/08/10 10:44:03;;;;;;;2.37;1.33;;;;;;;27.06;28.87;99964.56;4466196;32;33724;-72
2023/08/10 10:46:33;;;;;;;2.42;1.25;;;;;;;27.16;29.57;99953.16;4465985;32;33165;-72
2023/08/10 10:49:06;;;;;;;6.03;1.45;;;;;;;27.83;29.81;99949.00;4466172;32;33525;-72
2023/08/10 10:52:00;;;;;;;3.95;1.58;;;;;;;26.87;30.32;99957.19;4462520;32;33563;-73
2023/08/10 10:54:34;;;;;;;4.63;1.37;;;;;;;27.58;29.68;99951.66;4470702;32;33791;-73
2023/08/10 10:57:01;;;;;;;5.72;1.37;;;;;;;27.06;29.56;99944.47;4484330;32;32894;-72
2023/08/10 10:59:30;;;;;;;3.55;1.60;;;;;;;26.62;30.34;99944.19;4482430;32;33941;-73
2023/08/10 11:01:57;;;;;;;2.37;1.23;;;;;;;27.28;29.36;99954.13;4481680;32;33879;-71
2023/08/10 11:04:25;;;;;;;2.92;1.50;;;;;;;27.00;29.58;99943.47;4483406;32;35468;-71
2023/08/10 11:06:59;;;;;;;4.30;1.17;;;;;;;27.48;29.18;99945.81;4477635;32;34330;-73
2023/08/10 11:09:27;;;;;;;2.37;1.20;;;;;;;27.07;30.54;99949.75;4473024;32;33791;-72
2023/08/10 11:11:55;;;;;;;2.53;1.12;;;;;;;26.77;30.32;99943.94;4472519;32;33855;-72
2023/08/10 11:14:27;;;;;;;3.72;1.33;;;;;;;26.98;30.99;99945.56;4482904;32;34593;-72
2023/08/10 11:16:55;;;;;;;5.78;1.30;;;;;;;26.86;31.67;99941.81;4471613;32;34384;-72
2023/08/10 11:19:29;;;;;;;3.35;1.37;;;;;;;27.06;31.46;99942.59;4463216;32;33333;-72
2023/08/10 11:21:56;;;;;;;2.72;1.12;;;;;;;26.61;32.52;99934.28;4450343;32;34077;-72
2023/08/10 11:24:28;;;;;;;2.42;1.17;;;;;;;27.37;30.49;99936.31;4459654;32;33845;-73
2023/08/10 11:26:57;;;;;;;2.78;1.30;;;;;;;27.87;29.83;99925.47;4460137;32;34273;-72
2023/08/10 11:29:28;;;;;;;3.05;1.35;;;;;;;27.13;30.18;99926.06;4467067;32;34340;-73
2023/08/10 11:31:55;;;;;;;3.35;1.27;;;;;;;26.13;32.31;99929.03;4447940;32;33552;-71
2023/08/10 11:34:27;;;;;;;4.78;1.40;;;;;;;26.86;30.79;99931.66;4452541;32;34785;-71
2023/08/10 11:36:55;;;;;;;2.90;1.50;;;;;;;26.29;31.22;99916.75;4455658;32;33159;-71
2023/08/10 11:39:23;;;;;;;3.75;1.27;;;;;;;26.14;31.20;99929.88;4453874;32;34609;-72
2023/08/10 11:41:51;;;;;;;9.43;1.33;;;;;;;26.05;29.84;99933.88;4464865;32;32959;-71
2023/08/10 11:44:26;;;;;;;2.85;1.25;;;;;;;26.19;29.87;99930.91;4465642;32;33655;-71